AirNav   Bose ProFlight Series 2 Headset
 
 1752 users online  

MD93 Hexton Farms Airport
Cecilton, Maryland, USA

GOING TO CECILTON?


FAA INFORMATION EFFECTIVE 02 JANUARY 2020

Location

FAA Identifier: MD93
Lat/Long: 39-22-30.4040N 075-54-23.7860W
39-22.506733N 075-54.396433W
39.3751122,-75.9066072
(estimated)
Elevation: 65 ft. / 20 m (estimated)
Variation: 11W (1985)
From city: 3 miles SW of CECILTON, MD
Time zone: UTC -5 (UTC -4 during Daylight Saving Time)
Zip code: 21919

Airport Operations

Airport use: Private use. Permission required prior to landing
Activation date: 02/1964
Control tower: no
ARTCC: WASHINGTON CENTER
FSS: LEESBURG FLIGHT SERVICE STATION
Attendance: UNATNDD
Wind indicator: yes
Segmented circle: no

Airport Communications

WX AWOS-3 at EVY (12 nm NE): 132.325 (302-378-2063)
WX AWOS-3 at 33N (17 nm SE): 120.125 (302-735-9754)

Nearby radio navigation aids

VOR radial/distance  VOR name  Freq  Var
ENOr304/20.1SMYRNA VORTAC111.4009W
DQOr227/22.9DUPONT VORTAC114.0010W
OODr251/32.0WOODSTOWN VORTAC112.8010W
MXEr207/34.3MODENA VORTAC113.2009W
BALr082/37.1BALTIMORE VORTAC115.1011W

 
NDB name  Hdg/Dist  Freq  Var  ID
RAINBOW277/35.936311WRNB .-. -. -...

Airport Services

Airframe service: NONE
Powerplant service: NONE

Runway Information

Runway 14/32

Dimensions: 3800 x 100 ft. / 1158 x 30 m
Surface: turf
RUNWAY 14  RUNWAY 32
Traffic pattern: leftleft

Airport Ownership and Management from official FAA records

Ownership: Privately-owned
Owner: SAMUEL F & JOANNE J DUPONT
HEXTON FARMS PO BOX 384
GEORGETON, MD 21930
Phone 410-275-2626
Manager: SAMUEL DUPONT
HEXTON FARMS PO BOX 384
GEORGETOWN, MD 21930
Phone 410-275-2626

Additional Remarks

FOR CD CTC POTOMAC APCH AT 866-429-5882.

Instrument Procedures

There are no published instrument procedures at MD93.

Some nearby airports with instrument procedures:

58M - Claremont Airport (12 nm N)
KEVY - Summit Airport (12 nm NE)
KAPG - Phillips Army Airfield (13 nm NW)
33N - Delaware Airpark (17 nm SE)
KEDG - Weide Army Heliport (Aberdeen Proving Ground) (18 nm W)
0W3 - Harford County Airport (18 nm NW)
 
Loc | Ops | Rwys | IFR | FBO | Links
Com | Nav | Svcs | Stats | Notes
Area around MD93 (Hexton Farms Airport)
 
Road maps at: MapQuest Bing Google
 
Aerial photo
No photo
 
Sectional chart

 
Airport distance calculator
Flying to Hexton Farms Airport? Find the distance to fly.

From to MD93

Sunrise and sunset
Times for 24-Jan-2020
 Local
(UTC-5)
 Zulu
(UTC)
Morning civil twilight06:4911:49
Sunrise07:1812:18
Sunset17:1322:13
Evening civil twilight17:4222:42

Current date and time
Zulu (UTC)  25-Jan-2020 02:26:22
Local (UTC-5)  24-Jan-2020 21:26:22
 
METAR
KAPG 
9nm NW 
250158Z AUTO 08010KT 10SM OVC070 08/05 A3018 RMK AO2 SLP223 T00750048 PNO TSNO $
TAF
KILG 
23nm NE 
241740Z 2418/2518 07007KT P6SM BKN250 FM250400 08011KT P6SM OVC030 FM250800 08013G22KT 4SM RA OVC008 FM251500 09014G23KT 1SM -RA OVC008
KMTN 
24nm W 
242103Z 2421/2518 07006KT P6SM OVC040 FM250400 09009KT P6SM OVC015 WS020/12040KT FM250600 09010G18KT P6SM -RA OVC010 WS020/12040KT FM251100 10011G19KT 2SM SHRA OVC008 WS020/12040KT FM251300 11009KT 3SM SHRA OVC005 FM251600 15005KT 4SM SHRA OVC008
KDOV 
26nm SE 
250000Z 2500/2606 10012G20KT 9999 BKN040 QNH3011INS BECMG 2505/2506 11015G25KT 9999 BKN015 OVC030 QNH3000INS BECMG 2508/2509 12020G30KT 9999 BKN010 OVC020 510003 QNH2994INS BECMG 2510/2511 13020G30KT 3200 -SHRA BR BKN009 OVC015 510003 QNH2984INS TEMPO 2511/2515 13025G35KT 1600 SHRA BR BKN005 540003 BECMG 2514/2515 13015G25KT 1600 SHRA BR VCTS BKN006CB OVC010 QNH2976INS TEMPO 2515/2517 15025G35KT 1200 +TSRA BKN005CB BECMG 2516/2517 27012G18KT 8000 -SHRA BR BKN010 OVC020 QNH2971INS BECMG 2519/2520
NOTAMs
Click for the latest NOTAMs
NOTAMs are issued by the DoD/FAA and will open in a separate window not controlled by AirNav.

 

 
 

Would you like to see your business listed on this page?

 If your business provides an interesting product or service to pilots, flight crews, aircraft, or users of the Hexton Farms Airport, you should consider listing it here.  To start the listing process, click on the button below
 
Add a business
 

Other Pages about Hexton Farms Airport

Update a link
 
Copyright © AirNav, LLC. All rights reserved. Privacy Policy  Contact